Sunday, December 17, 2017, 4:36 PM EST
Back to Local

KUNV, State College, University Park Airport

Location: State College, PA, United States Lat: 40.85
Local Time: 4:36 PM EST (21:36 GMT) Lon: -77.85
Time Zone: US/Eastern Elev: 1240 ft

Show me the last for .
Show Decoded

2017-12-17 15:53 METAR KUNV 172053Z 00000KT 7SM SCT120 01/M02 A3013 =
2017-12-17 14:53 METAR KUNV 171953Z 00000KT 7SM SKC 01/M02 A3013 =
2017-12-17 13:53 METAR KUNV 171853Z 00000KT 7SM SKC 01/M02 A3015 =
2017-12-17 12:53 METAR KUNV 171753Z 00000KT 7SM SKC 00/M03 A3017 =
2017-12-17 11:53 METAR KUNV 171653Z 00000KT 7SM SKC 00/M03 A3021 =
2017-12-17 10:53 METAR KUNV 171553Z 00000KT 7SM SKC M01/M03 A3022 =
2017-12-17 09:53 METAR KUNV 171453Z 00000KT 8SM BKN080 M02/M04 A3023 =
2017-12-17 08:53 METAR KUNV 171353Z 00000KT 8SM BKN080 M03/M04 A3020 =
2017-12-17 07:53 METAR KUNV 171253Z 00000KT 8SM BKN080 M04/M05 A3020 =
2017-12-17 06:53 METAR KUNV 171153Z 00000KT 5SM BR OVC047 M04/M05 A3020 =
2017-12-17 05:53 METAR KUNV 171053Z 00000KT 6SM BR BKN047 M04/M05 A3018 =
2017-12-17 05:35 METAR KUNV 171035Z AUTO 00000KT 7SM SCT047 M04/M05 A3017 RMK AO2 T10421053 =
2017-12-17 05:10 METAR KUNV 171010Z AUTO 00000KT 10SM CLR M03/M04 A3016 RMK AO2 T10291043 =
2017-12-17 04:50 METAR KUNV 170950Z AUTO 00000KT 7SM CLR M03/M04 A3017 RMK AO2 T10271038 =
2017-12-17 04:35 METAR KUNV 170935Z AUTO 00000KT 7SM CLR M03/M05 A3016 RMK AO2 T10341047 =
2017-12-17 04:15 METAR KUNV 170915Z AUTO 00000KT 7SM CLR M04/M05 A3016 RMK AO2 T10381049 =
2017-12-17 03:50 METAR KUNV 170850Z AUTO 00000KT 10SM CLR M02/M04 A3016 RMK AO2 T10201037 =
2017-12-17 03:35 METAR KUNV 170835Z AUTO 00000KT 10SM CLR M02/M04 A3017 RMK AO2 T10251041 =
2017-12-17 03:15 METAR KUNV 170815Z AUTO 00000KT 10SM CLR M02/M04 A3018 RMK AO2 T10201037 =
2017-12-17 02:55 METAR KUNV 170755Z AUTO 00000KT 10SM BKN050 M03/M04 A3018 RMK AO2 T10271039 =
2017-12-17 02:35 METAR KUNV 170735Z AUTO 00000KT 10SM OVC050 M02/M03 A3018 RMK AO2 T10171034 =
2017-12-17 02:15 METAR KUNV 170715Z AUTO 00000KT 10SM OVC050 M01/M03 A3017 RMK AO2 T10151034 =
2017-12-17 01:55 METAR KUNV 170655Z AUTO 00000KT 10SM OVC050 M02/M03 A3016 RMK AO2 T10171033 =
2017-12-17 01:35 METAR KUNV 170635Z AUTO 00000KT 10SM SCT050 M02/M03 A3016 RMK AO2 T10201035 =
2017-12-17 01:20 METAR KUNV 170620Z AUTO 00000KT 10SM CLR M01/M04 A3015 RMK AO2 T10151037 =
2017-12-17 00:55 METAR KUNV 170555Z AUTO 00000KT 10SM CLR M01/M03 A3015 RMK AO2 T10121031 10019
                 21017 =
2017-12-17 00:35 METAR KUNV 170535Z AUTO 00000KT 10SM CLR M01/M03 A3014 RMK AO2 T10091033 =
2017-12-17 00:15 METAR KUNV 170515Z AUTO 00000KT 10SM CLR M01/M04 A3013 RMK AO2 T10101037 =
2017-12-17 00:00 METAR KUNV 170500Z AUTO 00000KT 10SM CLR M02/M04 A3013 RMK AO2 T10161040 =
2017-12-16 23:35 METAR KUNV 170435Z AUTO 00000KT 10SM CLR 00/M04 A3013 RMK AO2 T10041039 =
2017-12-16 23:10 METAR KUNV 170410Z AUTO 00000KT 10SM CLR 00/M04 A3013 RMK AO2 T10041036 =
2017-12-16 22:50 METAR KUNV 170350Z AUTO 00000KT 10SM SCT046 00/M03 A3013 RMK AO2 T00031034
                 400231045 =
2017-12-16 22:30 METAR KUNV 170330Z AUTO 00000KT 10SM BKN046 00/M03 A3012 RMK AO2 T00041032 =
2017-12-16 22:15 METAR KUNV 170315Z AUTO 00000KT 10SM OVC046 01/M03 A3012 RMK AO2 T00051030 =
2017-12-16 21:53 METAR KUNV 170253Z 00000KT 10SM OVC046 02/M03 A3012 =
2017-12-16 20:53 METAR KUNV 170153Z 00000KT 10SM OVC046 02/M03 A3012 =
2017-12-16 19:53 METAR KUNV 170053Z 24005KT 10SM BKN044 OVC075 02/M03 A3011 =
2017-12-16 18:53 METAR KUNV 162353Z 25005KT 10SM OVC042 02/M03 A3009 =
2017-12-16 17:53 METAR KUNV 162253Z 24006KT 10SM OVC036 02/M02 A3006 =
2017-12-16 16:53 METAR KUNV 162153Z 24010KT 10SM OVC032 02/M02 A3002 =

Support USWX by starting your Amazon purchase here.